Time;durP1;ratioP1;P1;durP2;ratioP2;P2;SDS_P1;SDS_P2;PMS_P1;PMS_P2;Temp;Humidity;BMP_temperature;BMP_pressure;BME280_temperature;BME280_humidity;BME280_pressure;Samples;Min_cycle;Max_cycle;Signal;HPM_P1;HPM_P2
2022/07/17 00:02:07;;;;;;;6.70;6.10;;;19.60;62.50;;;;;;5039679;28;20481;-81
2022/07/17 00:04:33;;;;;;;6.73;5.40;;;19.60;62.20;;;;;;5040245;28;20446;-81
2022/07/17 00:07:02;;;;;;;7.83;5.70;;;19.60;62.10;;;;;;5039367;28;20453;-82
2022/07/17 00:09:28;;;;;;;9.60;7.23;;;19.50;62.40;;;;;;5039610;28;20476;-81
2022/07/17 00:11:55;;;;;;;6.70;6.03;;;19.50;63.60;;;;;;5038632;28;20438;-81
2022/07/17 00:14:22;;;;;;;6.80;6.10;;;19.50;63.20;;;;;;5038173;28;20450;-81
2022/07/17 00:16:48;;;;;;;6.20;5.60;;;19.40;63.30;;;;;;5038649;28;20826;-81
2022/07/17 00:19:15;;;;;;;6.50;5.80;;;19.40;63.60;;;;;;5037884;28;20434;-81
2022/07/17 00:21:42;;;;;;;9.00;6.30;;;19.30;63.80;;;;;;5039482;28;20568;-81
2022/07/17 00:24:12;;;;;;;6.87;6.27;;;19.30;64.10;;;;;;5038159;28;20478;-81
2022/07/17 00:26:39;;;;;;;7.93;6.17;;;19.30;64.50;;;;;;5047317;28;20503;-81
2022/07/17 00:29:05;;;;;;;7.03;6.43;;;19.20;64.90;;;;;;5046572;28;20440;-81
2022/07/17 00:31:32;;;;;;;8.40;7.37;;;19.20;65.10;;;;;;5038051;28;20449;-81
2022/07/17 00:33:59;;;;;;;8.67;6.23;;;19.20;65.20;;;;;;5038415;28;21021;-81
2022/07/17 00:36:26;;;;;;;12.20;6.80;;;19.20;65.50;;;;;;5037429;28;20454;-82
2022/07/17 00:38:52;;;;;;;8.40;6.80;;;19.10;65.70;;;;;;5037992;28;20480;-81
2022/07/17 00:41:20;;;;;;;6.60;5.90;;;19.10;66.10;;;;;;5037584;28;20449;-81
2022/07/17 00:43:47;;;;;;;6.40;5.67;;;19.00;66.30;;;;;;5046063;28;20466;-80
2022/07/17 00:46:14;;;;;;;6.43;5.87;;;19.00;66.50;;;;;;5048908;28;20926;-80
2022/07/17 00:48:41;;;;;;;6.33;5.50;;;19.00;66.30;;;;;;5050325;28;20450;-80
2022/07/17 00:51:09;;;;;;;6.50;5.90;;;19.00;66.60;;;;;;5044754;28;20445;-82
2022/07/17 00:53:37;;;;;;;5.80;5.20;;;18.90;66.90;;;;;;5040401;28;20470;-81
2022/07/17 00:56:05;;;;;;;7.53;5.97;;;18.90;67.50;;;;;;5041825;28;20430;-80
2022/07/17 00:58:36;;;;;;;6.50;5.90;;;19.00;67.40;;;;;;5055699;28;20445;-83
2022/07/17 01:01:06;;;;;;;7.30;6.57;;;19.00;67.10;;;;;;5038501;28;20919;-82
2022/07/17 01:03:33;;;;;;;7.23;6.53;;;18.90;67.50;;;;;;5037271;28;20481;-80
2022/07/17 01:06:00;;;;;;;7.70;5.70;;;18.90;67.50;;;;;;5037197;28;20441;-80
2022/07/17 01:08:27;;;;;;;6.40;5.57;;;18.90;68.20;;;;;;5037020;28;20452;-80
2022/07/17 01:10:54;;;;;;;6.83;6.10;;;18.80;68.90;;;;;;5038016;28;20461;-81
2022/07/17 01:13:21;;;;;;;6.27;5.67;;;18.80;69.70;;;;;;5037561;28;20473;-81
2022/07/17 01:15:50;;;;;;;8.30;6.30;;;18.80;69.80;;;;;;5037424;28;20453;-81
2022/07/17 01:18:16;;;;;;;7.40;6.10;;;18.80;69.80;;;;;;5037678;28;20445;-81
2022/07/17 01:20:46;;;;;;;6.93;6.33;;;18.70;69.50;;;;;;5037058;28;20454;-81
2022/07/17 01:23:16;;;;;;;6.90;5.67;;;18.60;69.60;;;;;;5036726;28;20477;-81
2022/07/17 01:25:43;;;;;;;5.33;4.83;;;18.60;69.10;;;;;;5036924;28;20450;-81
2022/07/17 01:28:10;;;;;;;5.73;5.23;;;18.60;69.40;;;;;;5041949;28;20449;-81
2022/07/17 01:30:37;;;;;;;6.87;5.70;;;18.50;70.10;;;;;;5039580;28;20906;-81
2022/07/17 01:33:04;;;;;;;8.00;6.93;;;18.50;70.40;;;;;;5037739;28;20458;-81
2022/07/17 01:35:30;;;;;;;5.97;5.20;;;18.50;70.60;;;;;;5037360;28;20465;-82
2022/07/17 01:37:57;;;;;;;8.07;5.17;;;18.40;71.00;;;;;;5036937;28;20499;-82
2022/07/17 01:40:25;;;;;;;7.10;6.43;;;18.30;71.50;;;;;;5046151;28;20450;-81
2022/07/17 01:42:52;;;;;;;8.30;5.70;;;18.30;71.70;;;;;;5051381;28;20481;-80
2022/07/17 01:45:20;;;;;;;6.60;6.00;;;18.30;71.50;;;;;;5055271;28;20450;-80
2022/07/17 01:47:47;;;;;;;6.50;5.60;;;18.40;71.70;;;;;;5048827;28;20434;-81
2022/07/17 01:50:15;;;;;;;8.73;5.90;;;18.30;71.70;;;;;;5045439;28;20445;-80
2022/07/17 01:52:43;;;;;;;7.57;5.40;;;18.30;72.50;;;;;;5054335;28;20461;-80
2022/07/17 01:55:12;;;;;;;10.37;5.60;;;18.30;72.60;;;;;;5045402;28;20437;-81
2022/07/17 01:57:41;;;;;;;7.00;6.33;;;18.20;72.80;;;;;;5039310;28;20540;-81
2022/07/17 02:00:10;;;;;;;7.20;5.80;;;18.20;73.30;;;;;;5040163;28;20445;-81
2022/07/17 02:02:37;;;;;;;10.63;6.70;;;18.20;73.70;;;;;;5036822;28;20496;-81
2022/07/17 02:05:04;;;;;;;9.53;7.30;;;18.20;74.20;;;;;;5036386;28;20453;-81
2022/07/17 02:07:32;;;;;;;7.67;6.87;;;18.10;74.50;;;;;;5036964;28;20448;-81
2022/07/17 02:09:59;;;;;;;9.27;5.73;;;18.10;75.00;;;;;;5036687;28;20848;-81
2022/07/17 02:12:26;;;;;;;7.50;6.90;;;18.10;75.40;;;;;;5036668;28;20492;-81
2022/07/17 02:14:54;;;;;;;8.80;6.57;;;18.00;75.30;;;;;;5036998;28;20456;-81
2022/07/17 02:17:21;;;;;;;7.23;6.53;;;18.10;75.80;;;;;;5037506;28;20946;-81
2022/07/17 02:19:47;;;;;;;7.17;6.57;;;18.00;75.70;;;;;;5036046;28;20439;-81
2022/07/17 02:22:14;;;;;;;7.40;6.70;;;18.10;75.90;;;;;;5035830;28;20851;-81
2022/07/17 02:24:41;;;;;;;6.97;6.03;;;18.10;76.10;;;;;;5036462;28;20456;-81
2022/07/17 02:27:07;;;;;;;7.20;6.60;;;18.10;76.00;;;;;;5036403;28;20457;-81
2022/07/17 02:29:34;;;;;;;7.70;6.90;;;18.10;76.30;;;;;;5037503;28;20453;-81
2022/07/17 02:32:02;;;;;;;9.10;6.77;;;18.00;76.70;;;;;;5036432;28;20452;-81
2022/07/17 02:34:29;;;;;;;7.50;6.80;;;17.90;76.70;;;;;;5035871;28;20441;-81
2022/07/17 02:36:55;;;;;;;10.00;6.83;;;18.00;77.40;;;;;;5039760;28;20433;-81
2022/07/17 02:39:22;;;;;;;6.53;5.93;;;17.90;77.20;;;;;;5041348;28;20433;-81
2022/07/17 02:41:49;;;;;;;7.43;6.63;;;17.90;77.80;;;;;;5053101;28;20451;-80
2022/07/17 02:44:16;;;;;;;9.73;6.60;;;17.90;78.10;;;;;;5053451;28;20453;-82
2022/07/17 02:46:42;;;;;;;7.17;6.47;;;17.80;78.00;;;;;;5036098;28;20482;-79
2022/07/17 02:49:10;;;;;;;7.97;7.17;;;17.80;79.00;;;;;;5042426;28;20441;-79
2022/07/17 02:51:42;;;;;;;10.17;7.07;;;17.80;79.70;;;;;;5056360;28;20467;-79
2022/07/17 02:54:09;;;;;;;9.47;8.63;;;17.80;79.80;;;;;;5044717;28;20480;-79
2022/07/17 02:56:35;;;;;;;9.43;8.43;;;17.70;80.20;;;;;;5033578;28;20454;-78
2022/07/17 02:59:02;;;;;;;8.13;6.83;;;17.70;80.80;;;;;;5032365;28;20450;-78
2022/07/17 03:01:29;;;;;;;7.97;7.17;;;17.60;81.40;;;;;;5032345;28;20445;-78
2022/07/17 03:03:55;;;;;;;6.40;5.87;;;17.50;82.10;;;;;;5032158;28;20481;-79
2022/07/17 03:06:23;;;;;;;8.00;7.20;;;17.50;82.90;;;;;;5032576;28;20434;-78
2022/07/17 03:08:50;;;;;;;8.10;6.57;;;17.40;83.50;;;;;;5032914;28;20453;-79
2022/07/17 03:11:17;;;;;;;7.37;6.13;;;17.30;84.10;;;;;;5032904;28;20448;-79
2022/07/17 03:13:43;;;;;;;6.50;5.90;;;17.30;84.70;;;;;;5032945;28;20974;-79
2022/07/17 03:16:10;;;;;;;8.20;7.40;;;17.20;85.00;;;;;;5032640;28;21151;-78
2022/07/17 03:18:37;;;;;;;7.20;6.23;;;17.10;85.20;;;;;;5033428;28;20441;-78
2022/07/17 03:21:04;;;;;;;7.60;6.87;;;16.90;85.70;;;;;;5037624;28;20453;-78
2022/07/17 03:23:31;;;;;;;7.40;6.50;;;16.90;86.40;;;;;;5033924;28;21233;-78
2022/07/17 03:25:58;;;;;;;7.63;6.80;;;16.90;87.30;;;;;;5033153;28;20808;-79
2022/07/17 03:28:25;;;;;;;8.00;7.10;;;16.90;87.70;;;;;;5033551;28;20449;-79
2022/07/17 03:30:51;;;;;;;9.20;7.17;;;16.90;88.00;;;;;;5033528;28;20449;-79
2022/07/17 03:33:18;;;;;;;7.43;6.30;;;16.80;88.40;;;;;;5033907;28;20523;-79
2022/07/17 03:35:45;;;;;;;8.97;6.47;;;16.80;89.20;;;;;;5033369;28;20831;-79
2022/07/17 03:38:11;;;;;;;7.47;6.77;;;16.80;89.30;;;;;;5033703;28;20449;-79
2022/07/17 03:40:40;;;;;;;8.27;6.30;;;16.80;89.70;;;;;;5034532;28;20463;-79
2022/07/17 03:43:06;;;;;;;8.80;6.77;;;16.70;90.10;;;;;;5034318;28;20854;-79
2022/07/17 03:45:33;;;;;;;8.20;6.27;;;16.80;90.50;;;;;;5033806;28;20482;-79
2022/07/17 03:48:00;;;;;;;11.43;7.17;;;16.70;90.90;;;;;;5034205;28;20456;-79
2022/07/17 03:50:26;;;;;;;7.17;6.47;;;16.60;91.10;;;;;;5037097;28;20457;-79
2022/07/17 03:52:53;;;;;;;7.80;7.10;;;16.70;91.40;;;;;;5037003;28;20466;-79
2022/07/17 03:55:20;;;;;;;7.20;6.60;;;16.60;91.50;;;;;;5041253;28;20465;-79
2022/07/17 03:57:48;;;;;;;7.90;7.20;;;16.60;91.70;;;;;;5041363;28;20532;-78
2022/07/17 04:00:15;;;;;;;6.87;6.20;;;16.60;92.00;;;;;;5067151;23;20485;-83
2022/07/17 04:02:42;;;;;;;7.97;7.13;;;16.60;92.00;;;;;;5039971;28;20523;-83
2022/07/17 04:05:10;;;;;;;13.80;11.93;;;16.60;92.10;;;;;;5040403;28;20955;-83
2022/07/17 04:07:37;;;;;;;14.37;12.87;;;16.60;92.30;;;;;;5039244;28;20460;-83
2022/07/17 04:10:05;;;;;;;18.77;15.77;;;16.60;92.40;;;;;;5039358;28;21005;-83
2022/07/17 04:12:32;;;;;;;8.67;7.87;;;16.60;92.60;;;;;;5039297;28;20438;-83
2022/07/17 04:15:00;;;;;;;8.97;8.10;;;16.60;92.50;;;;;;5039285;28;20961;-83
2022/07/17 04:17:27;;;;;;;7.43;6.73;;;16.60;92.60;;;;;;5040791;28;20442;-85
2022/07/17 04:19:54;;;;;;;9.70;7.10;;;16.60;92.90;;;;;;5048138;28;20458;-83
2022/07/17 04:22:20;;;;;;;9.03;8.13;;;16.50;93.10;;;;;;5049821;28;20446;-84
2022/07/17 04:24:47;;;;;;;9.33;8.00;;;16.50;93.20;;;;;;5039838;28;20458;-85
2022/07/17 04:27:14;;;;;;;7.63;7.00;;;16.50;93.20;;;;;;5038941;28;20449;-85
2022/07/17 04:29:41;;;;;;;8.60;7.70;;;16.50;93.40;;;;;;5038826;28;20466;-84
2022/07/17 04:32:09;;;;;;;8.07;7.40;;;16.40;93.30;;;;;;5039872;28;20452;-84
2022/07/17 04:34:36;;;;;;;8.67;7.87;;;16.40;93.50;;;;;;5039397;28;20958;-84
2022/07/17 04:37:03;;;;;;;7.93;7.03;;;16.40;93.80;;;;;;5047076;28;20441;-83
2022/07/17 04:39:31;;;;;;;7.07;6.23;;;16.40;94.00;;;;;;5049045;28;20484;-82
2022/07/17 04:41:58;;;;;;;8.67;6.90;;;16.30;94.20;;;;;;5045394;28;20460;-84
2022/07/17 04:44:24;;;;;;;7.60;6.90;;;16.30;94.50;;;;;;5043175;28;20818;-83
2022/07/17 04:46:51;;;;;;;9.47;7.77;;;16.30;94.80;;;;;;5040655;28;20453;-83
2022/07/17 04:49:19;;;;;;;7.93;7.17;;;16.40;95.00;;;;;;5040096;28;20461;-84
2022/07/17 04:51:46;;;;;;;9.83;8.40;;;16.40;95.10;;;;;;5039792;28;20453;-84
2022/07/17 04:54:12;;;;;;;8.30;7.60;;;16.50;95.40;;;;;;5042289;28;20445;-84
2022/07/17 04:56:39;;;;;;;9.13;8.23;;;16.50;95.40;;;;;;5042635;28;20723;-83
2022/07/17 04:59:06;;;;;;;10.10;7.73;;;16.60;95.50;;;;;;5040450;28;20994;-84
2022/07/17 05:01:33;;;;;;;9.37;8.40;;;16.60;95.60;;;;;;5039409;28;20441;-84
2022/07/17 05:04:00;;;;;;;8.90;8.00;;;16.70;95.00;;;;;;5042200;28;20516;-84
2022/07/17 05:06:28;;;;;;;8.63;7.83;;;16.70;94.80;;;;;;5038959;28;20812;-83
2022/07/17 05:08:55;;;;;;;11.03;8.87;;;16.70;95.00;;;;;;5038361;28;20469;-83
2022/07/17 05:11:22;;;;;;;11.00;8.40;;;16.60;95.00;;;;;;5039070;28;20450;-85
2022/07/17 05:13:49;;;;;;;8.23;7.40;;;16.70;95.10;;;;;;5039477;28;20456;-84
2022/07/17 05:16:15;;;;;;;9.03;8.13;;;16.70;95.20;;;;;;5040912;28;20444;-84
2022/07/17 05:18:42;;;;;;;12.00;8.63;;;16.70;95.20;;;;;;5039821;28;20472;-84
2022/07/17 05:21:09;;;;;;;10.67;8.23;;;17.00;95.30;;;;;;5041272;28;20453;-83
2022/07/17 05:23:37;;;;;;;8.63;7.73;;;17.70;94.40;;;;;;5039906;28;20488;-82
2022/07/17 05:26:04;;;;;;;8.40;7.60;;;18.30;92.00;;;;;;5039093;28;20465;-83
2022/07/17 05:28:30;;;;;;;9.50;7.13;;;19.10;90.00;;;;;;5038650;28;20460;-83
2022/07/17 05:30:57;;;;;;;9.07;8.23;;;19.90;86.10;;;;;;5044176;28;20449;-83
2022/07/17 05:33:24;;;;;;;8.23;7.53;;;20.50;80.70;;;;;;5043077;28;20457;-82
2022/07/17 05:35:50;;;;;;;11.30;7.57;;;21.20;77.00;;;;;;5043293;28;20446;-82
2022/07/17 05:38:17;;;;;;;8.67;7.83;;;21.70;74.30;;;;;;5052591;28;20437;-81
2022/07/17 05:40:45;;;;;;;9.33;8.43;;;22.30;70.90;;;;;;5057580;28;20430;-80
2022/07/17 05:43:12;;;;;;;7.60;6.90;;;22.80;68.60;;;;;;5052960;28;20481;-84
2022/07/17 05:45:39;;;;;;;6.83;6.23;;;23.40;66.10;;;;;;5051010;28;20450;-82
2022/07/17 05:48:06;;;;;;;7.80;7.13;;;23.90;63.40;;;;;;5055133;28;20476;-82
2022/07/17 05:50:33;;;;;;;8.20;7.50;;;24.10;61.10;;;;;;5052843;28;20466;-85
2022/07/17 05:53:00;;;;;;;9.13;7.20;;;24.40;60.10;;;;;;5051380;28;20452;-81
2022/07/17 05:55:27;;;;;;;8.97;8.10;;;24.80;58.90;;;;;;5048020;28;20485;-84
2022/07/17 05:57:55;;;;;;;7.40;6.70;;;25.00;57.90;;;;;;5043577;28;20450;-85
2022/07/17 06:00:22;;;;;;;7.77;7.00;;;25.30;56.90;;;;;;5042850;28;20482;-84
2022/07/17 06:02:48;;;;;;;7.37;6.70;;;25.50;56.10;;;;;;5042192;28;20875;-82
2022/07/17 06:05:15;;;;;;;8.07;7.30;;;25.70;55.60;;;;;;5042572;28;20449;-84
2022/07/17 06:07:42;;;;;;;8.10;7.30;;;26.00;55.10;;;;;;5046057;28;20455;-84
2022/07/17 06:10:10;;;;;;;7.70;6.90;;;26.30;54.30;;;;;;5042851;28;20493;-84
2022/07/17 06:12:36;;;;;;;7.13;6.63;;;26.70;53.20;;;;;;5049582;28;20448;-82
2022/07/17 06:15:05;;;;;;;7.10;6.20;;;26.90;52.40;;;;;;5047368;28;20936;-82
2022/07/17 06:17:32;;;;;;;7.47;6.87;;;27.00;51.90;;;;;;5040277;28;20457;-82
2022/07/17 06:19:59;;;;;;;9.70;6.83;;;27.30;51.40;;;;;;5040740;28;20477;-81
2022/07/17 06:22:25;;;;;;;8.03;7.33;;;27.50;51.00;;;;;;5040371;28;20462;-83
2022/07/17 06:24:52;;;;;;;7.50;6.73;;;27.90;50.00;;;;;;5042620;28;20481;-82
2022/07/17 06:27:19;;;;;;;7.00;6.40;;;28.20;49.10;;;;;;5054279;28;20445;-81
2022/07/17 06:29:46;;;;;;;7.20;6.60;;;28.90;48.60;;;;;;5055802;28;20508;-82
2022/07/17 06:32:14;;;;;;;6.50;5.90;;;29.00;47.10;;;;;;5055704;28;20459;-82
2022/07/17 06:34:41;;;;;;;7.53;6.70;;;29.50;46.50;;;;;;5042342;28;20967;-83
2022/07/17 06:37:07;;;;;;;6.30;5.90;;;29.80;45.70;;;;;;5037785;28;20943;-82
2022/07/17 06:39:34;;;;;;;6.17;5.53;;;30.40;44.50;;;;;;5036746;28;20482;-84
2022/07/17 06:42:01;;;;;;;6.97;5.33;;;30.40;43.60;;;;;;5042344;28;20463;-84
2022/07/17 06:44:28;;;;;;;5.90;5.40;;;30.60;43.00;;;;;;5038379;28;20491;-82
2022/07/17 06:46:55;;;;;;;6.67;6.07;;;30.80;42.40;;;;;;5038305;28;20449;-84
2022/07/17 06:49:23;;;;;;;7.43;5.20;;;30.70;42.30;;;;;;5041105;28;20473;-83
2022/07/17 06:51:50;;;;;;;6.50;5.40;;;30.80;42.00;;;;;;5040785;28;20967;-83
2022/07/17 06:54:16;;;;;;;6.33;5.73;;;31.00;41.40;;;;;;5039662;28;20446;-82
2022/07/17 06:56:43;;;;;;;5.33;4.87;;;31.20;41.00;;;;;;5038723;28;20453;-84
2022/07/17 06:59:10;;;;;;;5.37;4.97;;;31.30;40.60;;;;;;5037773;28;20472;-83
2022/07/17 07:01:38;;;;;;;4.63;4.33;;;31.80;40.20;;;;;;5039243;28;20456;-83
2022/07/17 07:04:05;;;;;;;4.60;4.17;;;31.90;39.20;;;;;;5046334;28;20903;-83
2022/07/17 07:06:34;;;;;;;4.77;4.20;;;31.90;39.30;;;;;;5042797;28;20823;-83
2022/07/17 07:09:01;;;;;;;5.23;3.90;;;32.70;38.80;;;;;;5038634;28;20955;-83
2022/07/17 07:11:28;;;;;;;4.13;3.73;;;33.50;37.80;;;;;;5042823;28;20449;-83
2022/07/17 07:13:55;;;;;;;5.30;4.43;;;33.50;36.70;;;;;;5042629;28;20508;-83
2022/07/17 07:16:21;;;;;;;7.87;3.70;;;33.40;36.40;;;;;;5042758;28;20509;-83
2022/07/17 07:18:48;;;;;;;4.10;3.77;;;33.40;36.50;;;;;;5044667;28;20494;-82
2022/07/17 07:21:15;;;;;;;5.83;3.80;;;33.50;36.00;;;;;;5040264;28;20447;-82
2022/07/17 07:23:43;;;;;;;3.63;3.10;;;34.30;35.80;;;;;;5039047;28;20483;-83
2022/07/17 07:26:10;;;;;;;4.67;3.20;;;34.00;34.70;;;;;;5040959;28;20447;-84
2022/07/17 07:28:37;;;;;;;3.50;3.20;;;34.20;35.00;;;;;;5041468;28;20476;-82
2022/07/17 07:31:04;;;;;;;4.40;3.93;;;34.70;34.50;;;;;;5046400;28;20448;-82
2022/07/17 07:33:31;;;;;;;4.97;4.50;;;34.90;34.10;;;;;;5047155;28;20443;-83
2022/07/17 07:35:58;;;;;;;3.73;3.30;;;35.20;33.10;;;;;;5045241;28;20453;-84
2022/07/17 07:38:24;;;;;;;4.67;2.97;;;35.00;32.90;;;;;;5043475;28;20442;-83
2022/07/17 07:40:52;;;;;;;3.50;3.20;;;35.50;32.60;;;;;;5043154;28;20448;-81
2022/07/17 07:43:19;;;;;;;3.30;3.00;;;35.60;31.60;;;;;;5044074;28;20456;-85
2022/07/17 07:45:46;;;;;;;3.20;3.00;;;35.40;31.20;;;;;;5039991;28;20449;-84
2022/07/17 07:48:12;;;;;;;3.10;2.80;;;35.20;31.50;;;;;;5039804;28;20457;-81
2022/07/17 07:50:39;;;;;;;3.60;3.30;;;35.50;30.60;;;;;;5041462;28;20474;-84
2022/07/17 07:53:06;;;;;;;4.60;2.83;;;34.40;31.70;;;;;;5042089;28;20443;-81
2022/07/17 07:55:33;;;;;;;3.13;2.83;;;35.10;31.60;;;;;;5040070;28;20440;-82
2022/07/17 07:58:05;;;;;;;3.33;3.03;;;35.30;31.00;;;;;;5044902;28;20448;-83
2022/07/17 08:00:32;;;;;;;5.17;3.33;;;35.00;31.60;;;;;;5053534;28;20476;-83
2022/07/17 08:02:59;;;;;;;4.13;3.20;;;35.40;31.70;;;;;;5044953;28;20447;-83
2022/07/17 08:05:26;;;;;;;3.40;3.03;;;36.00;31.40;;;;;;5038895;28;20491;-83
2022/07/17 08:07:52;;;;;;;3.67;3.17;;;35.60;31.30;;;;;;5040694;28;20457;-83
2022/07/17 08:10:19;;;;;;;4.10;3.70;;;35.80;31.40;;;;;;5053277;28;20443;-80
2022/07/17 08:12:46;;;;;;;3.50;3.20;;;35.60;30.60;;;;;;5058502;28;20435;-82
2022/07/17 08:15:15;;;;;;;3.97;3.27;;;35.20;31.50;;;;;;5043630;28;20449;-83
2022/07/17 08:17:42;;;;;;;3.80;3.43;;;35.30;31.50;;;;;;5044934;28;20539;-83
2022/07/17 08:20:10;;;;;;;3.63;3.33;;;36.00;31.10;;;;;;5042218;28;20471;-83
2022/07/17 08:22:36;;;;;;;3.40;3.10;;;35.30;31.70;;;;;;5042059;28;20460;-84
2022/07/17 08:25:04;;;;;;;3.97;2.80;;;35.60;31.10;;;;;;5040121;28;20484;-83
2022/07/17 08:27:36;;;;;;;3.30;2.90;;;35.70;30.90;;;;;;5042029;28;20451;-83
2022/07/17 08:30:03;;;;;;;3.27;2.90;;;36.70;30.40;;;;;;5041047;28;20491;-83
2022/07/17 08:32:31;;;;;;;3.73;2.60;;;36.50;29.50;;;;;;5041714;28;20457;-83
2022/07/17 08:34:58;;;;;;;3.70;2.63;;;36.70;29.70;;;;;;5039809;28;20448;-83
2022/07/17 08:37:25;;;;;;;2.93;2.63;;;37.20;29.30;;;;;;5042027;28;20456;-84
2022/07/17 08:39:52;;;;;;;3.53;3.10;;;38.10;29.30;;;;;;5038950;28;20473;-83
2022/07/17 08:42:20;;;;;;;5.10;3.00;;;38.60;28.30;;;;;;5037904;28;20452;-84
2022/07/17 08:44:47;;;;;;;3.23;2.93;;;38.70;27.40;;;;;;5039155;28;20856;-84
2022/07/17 08:47:15;;;;;;;2.30;2.10;;;39.40;26.90;;;;;;5038847;28;20461;-83
2022/07/17 08:49:46;;;;;;;2.50;2.30;;;39.10;26.70;;;;;;5039563;28;20483;-83
2022/07/17 08:52:13;;;;;;;2.93;2.43;;;39.30;26.80;;;;;;5040426;28;20488;-83
2022/07/17 08:54:41;;;;;;;2.90;2.70;;;38.90;27.10;;;;;;5041569;28;20452;-83
2022/07/17 08:57:09;;;;;;;3.77;3.30;;;37.40;27.50;;;;;;5039943;28;20448;-84
2022/07/17 08:59:36;;;;;;;2.60;2.40;;;37.80;28.20;;;;;;5038278;28;20571;-84
2022/07/17 09:02:05;;;;;;;3.17;2.90;;;38.70;27.80;;;;;;5040726;28;20449;-83
2022/07/17 09:04:31;;;;;;;4.80;3.40;;;39.60;27.00;;;;;;5039570;28;20480;-83
2022/07/17 09:07:02;;;;;;;3.53;3.23;;;40.50;26.30;;;;;;5037600;28;20449;-84
2022/07/17 09:09:29;;;;;;;2.87;2.63;;;37.90;27.80;;;;;;5039766;28;20469;-83
2022/07/17 09:11:58;;;;;;;2.80;2.60;;;37.40;28.20;;;;;;5039435;28;20445;-83
2022/07/17 09:14:36;;;;;;;2.97;2.60;;;38.40;27.90;;;;;;5039495;28;21006;-84
2022/07/17 09:17:05;;;;;;;2.93;2.60;;;39.20;27.10;;;;;;5039520;28;20522;-84
2022/07/17 09:19:33;;;;;;;2.47;2.27;;;38.90;26.90;;;;;;5039993;28;20476;-83
2022/07/17 09:22:10;;;;;;;2.33;2.13;;;37.50;27.50;;;;;;5049753;28;20472;-83
2022/07/17 09:24:42;;;;;;;2.50;2.30;;;38.70;27.00;;;;;;5051572;28;20563;-83
2022/07/17 09:27:10;;;;;;;3.87;2.43;;;39.50;26.40;;;;;;5047614;28;20448;-83
2022/07/17 09:29:51;;;;;;;3.00;2.23;;;38.50;25.50;;;;;;5046929;28;20491;-83
2022/07/17 09:32:18;;;;;;;3.37;2.40;;;38.20;25.80;;;;;;5041724;28;20447;-83
2022/07/17 09:34:45;;;;;;;2.30;2.10;;;37.90;26.30;;;;;;5041473;28;20442;-84
2022/07/17 09:37:14;;;;;;;2.20;2.00;;;36.80;27.20;;;;;;5040588;28;20452;-83
2022/07/17 09:39:42;;;;;;;2.63;2.43;;;36.90;27.50;;;;;;5037992;28;20547;-83
2022/07/17 09:42:09;;;;;;;2.63;2.40;;;36.50;27.30;;;;;;5038604;28;20574;-83
2022/07/17 09:44:36;;;;;;;2.73;2.13;;;36.50;27.30;;;;;;5039489;28;20487;-83
2022/07/17 09:47:03;;;;;;;3.77;2.50;;;37.00;27.40;;;;;;5036695;28;20456;-83
2022/07/17 09:49:30;;;;;;;2.13;1.93;;;38.10;26.50;;;;;;5049880;28;20464;-83
2022/07/17 09:51:58;;;;;;;1.80;1.60;;;37.70;25.80;;;;;;5049386;28;20455;-83
2022/07/17 09:54:27;;;;;;;2.40;2.00;;;37.60;24.80;;;;;;5039033;28;20471;-83
2022/07/17 09:56:59;;;;;;;3.40;2.33;;;38.60;25.00;;;;;;5036686;28;20453;-83
2022/07/17 09:59:29;;;;;;;3.13;2.80;;;39.90;24.40;;;;;;5034684;28;20470;-83
2022/07/17 10:01:59;;;;;;;2.70;2.50;;;40.30;23.90;;;;;;5037044;28;20456;-83
2022/07/17 10:04:27;;;;;;;2.70;2.50;;;39.60;24.30;;;;;;5047908;28;20480;-83
2022/07/17 10:06:55;;;;;;;2.30;2.10;;;39.50;24.90;;;;;;5035129;28;20446;-83
2022/07/17 10:09:22;;;;;;;2.57;2.37;;;39.90;24.30;;;;;;5035102;28;20466;-83
2022/07/17 10:11:51;;;;;;;2.27;2.07;;;40.30;23.90;;;;;;5023387;28;20442;-83
2022/07/17 10:14:19;;;;;;;2.30;2.10;;;40.90;23.60;;;;;;5034034;28;20516;-85
2022/07/17 10:16:47;;;;;;;2.87;2.37;;;41.40;23.30;;;;;;5032249;28;20526;-85
2022/07/17 10:19:18;;;;;;;1.93;1.83;;;43.00;22.60;;;;;;5033799;28;20457;-85
2022/07/17 10:21:56;;;;;;;2.50;2.07;;;42.80;22.00;;;;;;5035489;28;20535;-85
2022/07/17 10:24:23;;;;;;;2.53;2.20;;;41.80;22.30;;;;;;5036349;28;20461;-83
2022/07/17 10:26:53;;;;;;;2.60;2.40;;;41.40;23.20;;;;;;5035712;28;20441;-83
2022/07/17 10:29:31;;;;;;;2.57;2.37;;;42.80;22.80;;;;;;5031389;28;20465;-84
2022/07/17 10:31:59;;;;;;;3.33;2.40;;;44.20;21.80;;;;;;5034886;28;20439;-83
2022/07/17 10:34:46;;;;;;;2.73;2.33;;;43.50;21.30;;;;;;5047228;28;20437;-83
2022/07/17 10:37:18;;;;;;;2.57;2.37;;;42.50;22.10;;;;;;5054457;28;20433;-82
2022/07/17 10:40:02;;;;;;;3.20;2.80;;;40.00;23.60;;;;;;5040410;28;20836;-83
2022/07/17 10:42:56;;;;;;;3.33;2.40;;;39.90;23.70;;;;;;5044227;28;20446;-83
2022/07/17 10:45:25;;;;;;;2.60;1.83;;;40.50;23.40;;;;;;5052350;28;21213;-82
2022/07/17 10:47:55;;;;;;;2.63;2.03;;;42.20;22.50;;;;;;5041445;28;20437;-84
2022/07/17 10:50:26;;;;;;;2.40;2.20;;;41.80;22.20;;;;;;5026892;28;20982;-85
2022/07/17 10:53:06;;;;;;;3.00;2.23;;;41.60;22.50;;;;;;5037250;28;20450;-84
2022/07/17 10:55:34;;;;;;;2.27;2.07;;;40.30;22.70;;;;;;5033863;28;20437;-83
2022/07/17 10:58:03;;;;;;;3.93;2.40;;;39.10;23.30;;;;;;5036808;28;20457;-83
2022/07/17 11:00:30;;;;;;;3.03;2.00;;;37.90;24.20;;;;;;5038101;28;20473;-83
2022/07/17 11:02:57;;;;;;;1.93;1.83;;;38.60;24.40;;;;;;5037974;28;20452;-84
2022/07/17 11:05:24;;;;;;;2.43;2.20;;;40.10;23.40;;;;;;5039162;28;20476;-83
2022/07/17 11:07:53;;;;;;;2.57;2.37;;;40.90;22.70;;;;;;5046136;28;20433;-85
2022/07/17 11:10:20;;;;;;;2.20;2.00;;;40.90;22.40;;;;;;5050283;28;20458;-85
2022/07/17 11:12:47;;;;;;;2.70;2.50;;;41.40;21.90;;;;;;5036993;28;20449;-85
2022/07/17 11:15:15;;;;;;;2.83;2.20;;;41.10;21.60;;;;;;5036956;28;20442;-85
2022/07/17 11:17:46;;;;;;;2.83;2.53;;;41.10;21.70;;;;;;5037293;28;20472;-86
2022/07/17 11:20:13;;;;;;;2.57;1.80;;;42.60;21.50;;;;;;5036307;28;20461;-87
2022/07/17 11:22:40;;;;;;;4.60;2.63;;;43.20;21.10;;;;;;5035588;28;20441;-86
2022/07/17 11:25:08;;;;;;;2.13;1.90;;;43.20;20.90;;;;;;5024490;28;20838;-85
2022/07/17 11:27:36;;;;;;;2.20;2.00;;;43.40;20.90;;;;;;5021245;28;20445;-86
2022/07/17 11:30:05;;;;;;;2.10;1.90;;;43.80;20.70;;;;;;5033290;28;20470;-85
2022/07/17 11:32:38;;;;;;;2.20;2.03;;;44.40;20.50;;;;;;5034107;28;20454;-86
2022/07/17 11:35:15;;;;;;;1.97;1.87;;;43.90;20.30;;;;;;5032852;28;20836;-86
2022/07/17 11:37:42;;;;;;;2.67;2.47;;;41.50;22.00;;;;;;5048904;28;20449;-85
2022/07/17 11:40:10;;;;;;;2.30;2.10;;;41.70;22.20;;;;;;5059322;28;20493;-85
2022/07/17 11:42:36;;;;;;;2.33;2.00;;;41.50;22.30;;;;;;5047621;28;20548;-86
2022/07/17 11:45:04;;;;;;;2.07;1.87;;;41.80;22.10;;;;;;5047845;28;20490;-85
2022/07/17 11:47:31;;;;;;;2.47;2.27;;;42.40;21.90;;;;;;5034570;28;20506;-86
2022/07/17 11:50:08;;;;;;;2.77;2.57;;;42.90;21.20;;;;;;5023194;28;20462;-85
2022/07/17 11:52:44;;;;;;;2.70;2.00;;;42.40;21.20;;;;;;5036363;28;20529;-85
2022/07/17 11:55:11;;;;;;;2.73;2.30;;;42.40;21.40;;;;;;5033463;28;20438;-85
2022/07/17 11:57:46;;;;;;;2.23;2.03;;;42.40;21.00;;;;;;5033726;28;20902;-85
2022/07/17 12:00:15;;;;;;;3.97;2.43;;;42.60;21.00;;;;;;5034436;28;20623;-85
2022/07/17 12:02:42;;;;;;;2.50;2.30;;;41.70;21.50;;;;;;5034344;28;20445;-86
2022/07/17 12:05:10;;;;;;;2.73;2.30;;;42.60;21.30;;;;;;5029350;28;20485;-87
2022/07/17 12:07:43;;;;;;;3.20;2.57;;;42.90;21.20;;;;;;5034637;28;20966;-86
2022/07/17 12:10:19;;;;;;;2.67;2.20;;;42.90;20.70;;;;;;5032556;28;20461;-86
2022/07/17 12:12:54;;;;;;;2.70;2.50;;;42.90;20.60;;;;;;5034200;28;20477;-85
2022/07/17 12:15:21;;;;;;;2.40;2.20;;;42.80;20.90;;;;;;5032004;28;20474;-85
2022/07/17 12:17:48;;;;;;;5.10;2.03;;;44.10;20.40;;;;;;5028039;28;20936;-85
2022/07/17 12:20:16;;;;;;;2.10;1.90;;;44.90;19.70;;;;;;5027211;28;20482;-85
2022/07/17 12:22:45;;;;;;;2.57;2.00;;;44.80;19.50;;;;;;5028183;28;20442;-85
2022/07/17 12:25:23;;;;;;;2.57;2.27;;;44.10;19.60;;;;;;5024242;28;20523;-85
2022/07/17 12:27:49;;;;;;;3.40;2.20;;;42.70;20.60;;;;;;5035544;28;20927;-86
2022/07/17 12:30:16;;;;;;;2.63;2.43;;;41.40;21.40;;;;;;5038088;22;20508;-85
2022/07/17 12:32:43;;;;;;;5.47;2.50;;;41.20;21.30;;;;;;5014562;28;21074;-85
2022/07/17 12:35:10;;;;;;;10.87;3.03;;;40.20;21.10;;;;;;5022961;28;20435;-85
2022/07/17 12:37:38;;;;;;;2.60;2.40;;;41.00;22.90;;;;;;5018177;28;20501;-85
2022/07/17 12:40:07;;;;;;;1.83;1.73;;;43.10;20.40;;;;;;5019650;28;20459;-85
2022/07/17 12:42:34;;;;;;;2.60;1.90;;;44.10;19.40;;;;;;5014571;28;20951;-84
2022/07/17 12:45:01;;;;;;;2.70;2.50;;;44.50;19.00;;;;;;5011111;28;20442;-85
2022/07/17 12:47:28;;;;;;;2.00;1.87;;;44.00;18.90;;;;;;5021105;28;20459;-85
2022/07/17 12:49:55;;;;;;;2.10;1.90;;;44.70;18.60;;;;;;5017007;28;20470;-84